Boston, Massachusetts
Traffic Map
Current Weather Conditions
Boston, Massachusetts
Few Clouds
Few Clouds
24°
Feels Like: 24°
Wind Chill: 24° Ceiling: Unl
Heat Index: 24° Visibility: 10mi
Dew Point: 17° Wind: 13mph
Humidity: 66% Direction: 80° (E)
Pressure: 30.06in Gusts: 0mph
Raw Report DataKBOS 011754Z 08011KT 10SM FEW040 24/17 A3006 RMK AO2 SLP178 T02390172 10261 20222 55000
Traffic Incident Summary
Active as of:
Severity:
Category:
InformationThere was an issue retrieving the traffic information for this location. Please try a different location or try again shortly.
Advertisements
Track Severe Weather on mobile